createdAt,value
2023-05-14T00:00:04.631Z,17.00
2023-05-14T00:02:52.482Z,17.30
2023-05-14T00:05:38.061Z,17.50
2023-05-14T00:08:26.116Z,17.10
2023-05-14T00:11:11.667Z,17.00
2023-05-14T00:13:56.996Z,17.20
2023-05-14T00:16:42.413Z,17.40
2023-05-14T00:19:28.261Z,17.40
2023-05-14T00:22:16.230Z,17.60
2023-05-14T00:25:01.625Z,18.40
2023-05-14T00:27:48.286Z,18.40
2023-05-14T00:30:33.627Z,18.40
2023-05-14T00:33:19.030Z,18.40
2023-05-14T00:36:04.838Z,18.40
2023-05-14T00:38:50.950Z,18.70
2023-05-14T00:41:38.527Z,18.60
2023-05-14T00:44:24.232Z,19.00
2023-05-14T00:47:09.875Z,18.60
2023-05-14T00:49:56.055Z,18.40
2023-05-14T00:52:41.694Z,18.50
2023-05-14T00:55:30.087Z,18.50
2023-05-14T00:58:15.869Z,18.50
2023-05-14T01:01:01.165Z,18.40
2023-05-14T01:03:47.334Z,18.20
2023-05-14T01:07:05.068Z,18.30
2023-05-14T01:10:22.265Z,17.80
2023-05-14T01:13:18.550Z,18.20
2023-05-14T01:16:11.247Z,18.30
2023-05-14T01:19:01.590Z,17.70
2023-05-14T01:21:46.986Z,17.90
2023-05-14T01:24:32.837Z,17.90
2023-05-14T01:27:23.823Z,17.80
2023-05-14T01:30:31.374Z,17.60
2023-05-14T01:33:19.306Z,17.70
2023-05-14T01:36:07.738Z,18.00
2023-05-14T01:38:58.733Z,18.10
2023-05-14T01:41:45.690Z,17.70
2023-05-14T01:44:31.960Z,17.40
2023-05-14T01:47:17.605Z,17.00
2023-05-14T01:50:02.885Z,17.20
2023-05-14T01:52:48.438Z,17.30
2023-05-14T01:55:36.251Z,17.20
2023-05-14T01:58:24.578Z,16.90
2023-05-14T02:01:10.322Z,16.50
2023-05-14T02:03:56.224Z,16.20
2023-05-14T02:06:41.934Z,16.10
2023-05-14T02:09:27.285Z,16.30
2023-05-14T02:12:15.063Z,15.60
2023-05-14T02:15:01.027Z,15.60
2023-05-14T02:17:48.843Z,15.40
2023-05-14T02:20:34.787Z,14.90
2023-05-14T02:23:25.580Z,14.60
2023-05-14T02:26:16.686Z,14.70
2023-05-14T02:29:01.920Z,14.40
2023-05-14T02:31:47.571Z,14.20
2023-05-14T02:34:34.500Z,13.90
2023-05-14T02:37:20.698Z,13.70
2023-05-14T02:40:07.254Z,13.50
2023-05-14T02:42:52.732Z,13.50
2023-05-14T02:45:38.113Z,13.10
2023-05-14T02:48:25.046Z,13.00
2023-05-14T02:51:10.691Z,12.40
2023-05-14T02:53:56.158Z,11.40
2023-05-14T02:56:43.471Z,11.60
2023-05-14T02:59:28.861Z,11.50
2023-05-14T03:02:14.766Z,11.00
2023-05-14T03:05:00.755Z,10.50
2023-05-14T03:07:46.420Z,11.00
2023-05-14T03:10:32.917Z,10.60
2023-05-14T03:13:21.058Z,10.80
2023-05-14T03:16:06.600Z,10.30
2023-05-14T03:18:52.154Z,10.10
2023-05-14T03:21:37.680Z,9.60
2023-05-14T03:24:23.293Z,9.00
2023-05-14T03:27:08.860Z,9.10
2023-05-14T03:29:54.284Z,9.40
2023-05-14T03:32:39.819Z,8.20
2023-05-14T03:35:28.269Z,8.00
2023-05-14T03:38:14.095Z,7.30
2023-05-14T03:40:59.936Z,7.10
2023-05-14T03:43:45.372Z,6.70
2023-05-14T03:46:33.267Z,6.80
2023-05-14T03:49:18.836Z,6.40
2023-05-14T03:52:05.023Z,6.20
2023-05-14T03:54:50.631Z,6.50
2023-05-14T03:57:38.623Z,6.00
2023-05-14T04:00:26.358Z,6.00
2023-05-14T04:03:12.189Z,6.10
2023-05-14T04:05:57.652Z,5.90
2023-05-14T04:08:46.219Z,5.90
2023-05-14T04:11:31.663Z,5.70
2023-05-14T04:14:17.133Z,6.10
2023-05-14T04:17:07.151Z,6.00
2023-05-14T04:19:52.590Z,6.40
2023-05-14T04:22:38.167Z,6.90
2023-05-14T04:25:24.153Z,7.00
2023-05-14T04:28:09.481Z,6.90
2023-05-14T04:30:57.187Z,6.60
2023-05-14T04:33:45.013Z,6.90
2023-05-14T04:36:31.278Z,6.80
2023-05-14T04:39:19.180Z,7.20
2023-05-14T04:42:05.376Z,7.10
2023-05-14T04:44:51.084Z,6.90
2023-05-14T04:47:36.353Z,7.60
2023-05-14T04:50:22.319Z,7.60
2023-05-14T04:53:08.711Z,7.70
2023-05-14T04:55:54.239Z,7.50
2023-05-14T04:58:41.737Z,7.80
2023-05-14T05:01:27.057Z,8.30
2023-05-14T05:04:13.154Z,8.30
2023-05-14T05:06:58.808Z,7.70
2023-05-14T05:09:46.925Z,7.90
2023-05-14T05:12:32.462Z,7.60
2023-05-14T05:15:17.877Z,7.50
2023-05-14T05:18:04.013Z,7.00
2023-05-14T05:20:49.314Z,7.40
2023-05-14T05:23:34.501Z,7.00
2023-05-14T05:26:20.063Z,5.70
2023-05-14T05:29:06.204Z,5.10
2023-05-14T05:31:51.737Z,4.40
2023-05-14T05:34:37.842Z,3.50
2023-05-14T05:37:23.146Z,3.30
2023-05-14T05:40:10.240Z,2.90
2023-05-14T05:42:56.356Z,2.90
2023-05-14T05:45:41.939Z,2.80
2023-05-14T05:48:27.750Z,2.50
2023-05-14T05:51:13.526Z,2.40
2023-05-14T05:53:59.140Z,2.00
2023-05-14T05:56:44.705Z,2.00
2023-05-14T05:59:30.291Z,1.80
2023-05-14T06:02:18.119Z,1.80
2023-05-14T06:05:03.905Z,1.20
2023-05-14T06:07:49.557Z,1.00
2023-05-14T06:10:37.566Z,1.00
2023-05-14T06:13:28.007Z,1.00
2023-05-14T06:16:16.670Z,1.00
2023-05-14T06:19:02.982Z,1.00
2023-05-14T06:21:48.708Z,1.00
2023-05-14T06:24:34.093Z,1.00
2023-05-14T06:27:19.392Z,1.00
2023-05-14T06:30:06.091Z,1.00
2023-05-14T06:32:53.973Z,1.00
2023-05-14T06:35:39.701Z,1.00
2023-05-14T06:38:25.131Z,1.00
2023-05-14T06:41:11.201Z,1.00
2023-05-14T06:43:56.885Z,1.00
2023-05-14T06:46:42.618Z,1.00
2023-05-14T06:49:28.931Z,1.00
2023-05-14T06:52:14.325Z,1.00
2023-05-14T06:54:59.870Z,1.00
2023-05-14T06:57:45.434Z,1.00
2023-05-14T07:00:31.345Z,1.00
2023-05-14T07:03:16.870Z,1.00
2023-05-14T07:06:02.565Z,1.00
2023-05-14T07:08:48.145Z,1.00
2023-05-14T07:11:34.147Z,1.00
2023-05-14T07:14:19.631Z,1.00
2023-05-14T07:17:05.069Z,1.00
2023-05-14T07:19:51.323Z,1.00
2023-05-14T07:22:36.720Z,1.00
2023-05-14T07:25:22.368Z,1.00
2023-05-14T07:28:08.111Z,1.00
2023-05-14T07:30:53.523Z,1.00
2023-05-14T07:33:39.299Z,1.00
2023-05-14T07:36:24.534Z,1.00
2023-05-14T07:39:09.804Z,1.00
2023-05-14T07:41:55.541Z,1.00
2023-05-14T07:44:43.277Z,1.00
2023-05-14T07:47:29.388Z,1.00
2023-05-14T07:50:16.665Z,1.00
2023-05-14T07:53:02.663Z,1.00
2023-05-14T07:55:51.826Z,1.00
2023-05-14T07:58:37.421Z,1.00
2023-05-14T08:01:23.592Z,1.00
2023-05-14T08:04:16.265Z,1.00
2023-05-14T08:07:04.580Z,1.00
2023-05-14T08:09:49.950Z,1.00
2023-05-14T08:12:36.947Z,1.00
2023-05-14T08:15:24.559Z,1.00
2023-05-14T08:18:12.140Z,1.00
2023-05-14T08:20:58.455Z,1.00
2023-05-14T08:23:43.875Z,1.00
2023-05-14T08:26:29.175Z,1.00
2023-05-14T08:29:16.482Z,1.00
2023-05-14T08:32:11.766Z,1.00
2023-05-14T08:35:05.293Z,1.00
2023-05-14T08:37:51.026Z,1.00
2023-05-14T08:40:36.836Z,1.00
2023-05-14T08:43:27.129Z,1.00
2023-05-14T08:46:17.055Z,1.00
2023-05-14T08:49:37.302Z,1.00
2023-05-14T08:52:22.923Z,1.00
2023-05-14T08:55:12.155Z,1.00
2023-05-14T08:57:57.443Z,1.00
2023-05-14T09:00:44.992Z,1.00
2023-05-14T09:03:31.336Z,1.00
2023-05-14T09:06:18.124Z,1.00
2023-05-14T09:09:04.860Z,1.00
2023-05-14T09:11:54.592Z,1.00
2023-05-14T09:14:41.224Z,1.00
2023-05-14T09:17:30.015Z,1.00
2023-05-14T09:20:16.599Z,1.00
2023-05-14T09:23:02.405Z,1.00
2023-05-14T09:25:57.519Z,1.00
2023-05-14T09:28:43.907Z,1.00
2023-05-14T09:31:33.615Z,1.00
2023-05-14T09:34:26.264Z,1.00
2023-05-14T09:37:11.391Z,1.00
2023-05-14T09:40:00.183Z,1.00
2023-05-14T09:42:46.504Z,1.00
2023-05-14T09:45:32.232Z,1.00
2023-05-14T09:48:17.884Z,1.00
2023-05-14T09:51:05.295Z,1.00
2023-05-14T09:53:53.930Z,1.00
2023-05-14T09:56:42.161Z,1.00
2023-05-14T09:59:27.529Z,1.00
2023-05-14T10:02:30.193Z,1.00
2023-05-14T10:05:16.212Z,1.00
2023-05-14T10:08:08.882Z,1.00
2023-05-14T10:10:55.782Z,1.00
2023-05-14T10:13:46.472Z,1.00
2023-05-14T10:16:35.063Z,1.00
2023-05-14T10:19:26.264Z,1.00
2023-05-14T10:22:15.078Z,1.00
2023-05-14T10:25:01.944Z,1.00
2023-05-14T10:27:53.256Z,1.00
2023-05-14T10:30:45.939Z,1.00
2023-05-14T10:33:45.826Z,1.00
2023-05-14T10:36:31.994Z,1.00
2023-05-14T10:39:17.804Z,1.00
2023-05-14T10:42:04.847Z,1.00
2023-05-14T10:44:58.387Z,1.00
2023-05-14T10:47:46.328Z,1.00
2023-05-14T10:50:32.845Z,1.00
2023-05-14T10:53:20.359Z,1.00
2023-05-14T10:56:09.481Z,1.00
2023-05-14T10:59:02.320Z,1.00
2023-05-14T11:01:48.491Z,1.00
2023-05-14T11:04:34.321Z,1.00
2023-05-14T11:07:26.096Z,1.00
2023-05-14T11:10:21.219Z,1.00
2023-05-14T11:13:07.326Z,1.00
2023-05-14T11:15:53.116Z,1.00
2023-05-14T11:18:41.911Z,1.00
2023-05-14T11:21:27.644Z,1.00
2023-05-14T11:24:12.911Z,1.00
2023-05-14T11:26:58.309Z,1.00
2023-05-14T11:29:48.159Z,1.00
2023-05-14T11:32:34.690Z,1.00
2023-05-14T11:35:20.351Z,1.00
2023-05-14T11:38:07.959Z,1.00
2023-05-14T11:40:56.041Z,1.00
2023-05-14T11:43:44.642Z,1.00
2023-05-14T11:46:31.077Z,1.00
2023-05-14T11:49:17.005Z,1.00
2023-05-14T11:52:05.130Z,1.00
2023-05-14T11:54:51.449Z,1.00
2023-05-14T11:57:38.606Z,1.00
2023-05-14T12:00:26.838Z,1.00
2023-05-14T12:03:15.237Z,1.00
2023-05-14T12:06:02.511Z,1.00
2023-05-14T12:08:49.424Z,1.00
2023-05-14T12:11:37.196Z,1.00
2023-05-14T12:14:24.255Z,1.00
2023-05-14T12:17:22.406Z,1.00
2023-05-14T12:20:12.486Z,1.00
2023-05-14T12:22:58.319Z,1.00
2023-05-14T12:25:53.309Z,1.00
2023-05-14T12:28:43.702Z,1.00
2023-05-14T12:31:38.838Z,1.00
2023-05-14T12:34:27.783Z,1.00
2023-05-14T12:37:19.597Z,1.00
2023-05-14T12:40:21.320Z,1.00
2023-05-14T12:43:06.692Z,1.00
2023-05-14T12:45:56.949Z,1.00
2023-05-14T12:48:42.480Z,1.00
2023-05-14T12:51:31.143Z,1.00
2023-05-14T12:54:16.363Z,1.00
2023-05-14T12:57:04.029Z,1.00
2023-05-14T12:59:51.824Z,1.00
2023-05-14T13:02:42.668Z,1.00
2023-05-14T13:05:29.547Z,1.00
2023-05-14T13:08:17.943Z,1.00
2023-05-14T13:11:03.329Z,1.00
2023-05-14T13:13:51.569Z,1.00
2023-05-14T13:16:37.408Z,1.00
2023-05-14T13:19:27.633Z,1.00
2023-05-14T13:22:12.960Z,1.00
2023-05-14T13:24:58.944Z,1.00
2023-05-14T13:27:44.128Z,1.00
2023-05-14T13:30:32.384Z,1.00
2023-05-14T13:33:18.325Z,1.00
2023-05-14T13:36:07.197Z,1.00
2023-05-14T13:38:52.448Z,1.00
2023-05-14T13:41:38.367Z,1.00
2023-05-14T13:44:24.393Z,1.00
2023-05-14T13:47:10.963Z,1.00
2023-05-14T13:49:59.466Z,1.00
2023-05-14T13:52:44.837Z,1.00
2023-05-14T13:55:30.080Z,1.00
2023-05-14T13:58:16.475Z,1.00
2023-05-14T14:01:02.179Z,1.00
2023-05-14T14:03:47.369Z,1.00
2023-05-14T14:06:35.849Z,1.00
2023-05-14T14:09:21.565Z,1.00
2023-05-14T14:12:07.491Z,1.00
2023-05-14T14:14:53.293Z,1.00
2023-05-14T14:17:39.270Z,1.00
2023-05-14T14:20:27.494Z,1.00
2023-05-14T14:23:13.002Z,1.00
2023-05-14T14:25:58.664Z,1.00
2023-05-14T14:28:43.960Z,1.00
2023-05-14T14:31:31.586Z,1.00
2023-05-14T14:34:16.726Z,1.00
2023-05-14T14:37:02.450Z,1.00
2023-05-14T14:39:48.441Z,1.00
2023-05-14T14:42:35.457Z,1.00
2023-05-14T14:45:23.818Z,1.00
2023-05-14T14:48:26.290Z,1.00
2023-05-14T14:51:11.980Z,1.00
2023-05-14T14:53:57.629Z,1.00
2023-05-14T14:56:44.167Z,1.00
2023-05-14T14:59:32.008Z,1.00
2023-05-14T15:02:17.570Z,1.00
2023-05-14T15:05:03.435Z,1.00
2023-05-14T15:07:49.520Z,1.00
2023-05-14T15:10:38.011Z,1.00
2023-05-14T15:13:24.659Z,1.00
2023-05-14T15:16:10.383Z,1.00
2023-05-14T15:18:55.826Z,1.00
2023-05-14T15:21:41.579Z,1.00
2023-05-14T15:24:26.913Z,1.00
2023-05-14T15:27:14.667Z,1.00
2023-05-14T15:30:00.279Z,1.00
2023-05-14T15:32:46.673Z,1.00
2023-05-14T15:35:32.142Z,1.00
2023-05-14T15:38:17.853Z,1.00
2023-05-14T15:41:04.068Z,1.00
2023-05-14T15:43:49.638Z,1.00
2023-05-14T15:46:38.074Z,1.00
2023-05-14T15:49:23.606Z,1.00
2023-05-14T15:52:08.837Z,1.00
2023-05-14T15:54:56.201Z,1.00
2023-05-14T15:57:41.988Z,1.00
2023-05-14T16:00:27.625Z,1.00
2023-05-14T16:03:13.350Z,1.00
2023-05-14T16:05:59.016Z,1.00
2023-05-14T16:08:44.561Z,1.00
2023-05-14T16:11:32.619Z,1.00
2023-05-14T16:14:18.500Z,1.00
2023-05-14T16:17:04.952Z,1.00
2023-05-14T16:19:50.302Z,1.00
2023-05-14T16:22:36.290Z,1.00
2023-05-14T16:25:24.433Z,1.00
2023-05-14T16:28:09.990Z,1.00
2023-05-14T16:30:55.913Z,1.00
2023-05-14T16:33:41.217Z,1.00
2023-05-14T16:36:26.852Z,1.00
2023-05-14T16:39:12.105Z,1.00
2023-05-14T16:41:57.738Z,1.00
2023-05-14T16:44:44.028Z,1.00
2023-05-14T16:47:29.597Z,1.00
2023-05-14T16:50:15.539Z,1.00
2023-05-14T16:53:01.009Z,1.00
2023-05-14T16:55:49.520Z,1.00
2023-05-14T16:58:37.148Z,1.00
2023-05-14T17:01:22.711Z,1.00
2023-05-14T17:04:08.730Z,1.00
2023-05-14T17:06:54.927Z,1.00
2023-05-14T17:09:40.773Z,1.00
2023-05-14T17:12:28.625Z,1.00
2023-05-14T17:15:13.980Z,1.00
2023-05-14T17:17:59.717Z,1.00
2023-05-14T17:20:46.047Z,1.00
2023-05-14T17:23:34.251Z,1.00
2023-05-14T17:26:19.893Z,1.00
2023-05-14T17:29:07.156Z,1.00
2023-05-14T17:31:52.606Z,1.00
2023-05-14T17:34:38.435Z,1.00
2023-05-14T17:37:24.727Z,1.00
2023-05-14T17:40:10.680Z,1.00
2023-05-14T17:42:58.623Z,1.00
2023-05-14T17:45:53.804Z,1.00
2023-05-14T17:48:40.865Z,1.00
2023-05-14T17:51:26.856Z,1.00
2023-05-14T17:54:12.289Z,1.00
2023-05-14T17:56:58.009Z,1.00
2023-05-14T17:59:43.847Z,1.00
2023-05-14T18:02:29.574Z,1.00
2023-05-14T18:05:15.208Z,1.00
2023-05-14T18:08:00.919Z,1.00
2023-05-14T18:10:46.420Z,1.00
2023-05-14T18:13:32.044Z,1.00
2023-05-14T18:16:17.794Z,1.00
2023-05-14T18:19:06.069Z,1.00
2023-05-14T18:21:51.649Z,1.00
2023-05-14T18:24:39.266Z,1.00
2023-05-14T18:27:24.627Z,1.00
2023-05-14T18:30:12.540Z,1.00
2023-05-14T18:33:00.888Z,1.00
2023-05-14T18:35:47.183Z,1.00
2023-05-14T18:38:34.815Z,1.00
2023-05-14T18:41:21.521Z,1.00
2023-05-14T18:44:07.258Z,1.00
2023-05-14T18:46:58.206Z,1.00
2023-05-14T18:49:44.418Z,1.00
2023-05-14T18:52:29.904Z,1.00
2023-05-14T18:55:15.849Z,1.00
2023-05-14T18:58:02.240Z,1.00
2023-05-14T19:00:47.762Z,1.00
2023-05-14T19:03:33.862Z,1.00
2023-05-14T19:06:19.546Z,1.00
2023-05-14T19:09:05.599Z,1.00
2023-05-14T19:11:51.086Z,1.00
2023-05-14T19:14:36.903Z,1.00
2023-05-14T19:17:22.829Z,1.00
2023-05-14T19:20:09.416Z,1.00
2023-05-14T19:22:55.103Z,1.00
2023-05-14T19:25:40.619Z,1.00
2023-05-14T19:28:26.743Z,1.00
2023-05-14T19:31:12.489Z,1.20
2023-05-14T19:33:58.513Z,1.50
2023-05-14T19:36:44.374Z,1.80
2023-05-14T19:39:30.283Z,2.00
2023-05-14T19:42:16.275Z,2.20
2023-05-14T19:45:01.686Z,2.70
2023-05-14T19:47:47.155Z,2.70
2023-05-14T19:50:36.983Z,2.80
2023-05-14T19:53:24.129Z,3.30
2023-05-14T19:56:09.737Z,3.80
2023-05-14T19:58:55.371Z,4.10
2023-05-14T20:01:41.605Z,4.30
2023-05-14T20:04:29.687Z,4.60
2023-05-14T20:07:15.712Z,4.80
2023-05-14T20:10:01.278Z,5.20
2023-05-14T20:12:47.236Z,6.10
2023-05-14T20:15:35.394Z,5.80
2023-05-14T20:18:20.909Z,6.10
2023-05-14T20:21:06.737Z,6.10
2023-05-14T20:23:54.894Z,6.40
2023-05-14T20:26:41.139Z,6.70
2023-05-14T20:29:27.397Z,6.90
2023-05-14T20:32:13.210Z,7.10
2023-05-14T20:35:06.372Z,7.20
2023-05-14T20:37:51.697Z,7.50
2023-05-14T20:40:37.696Z,7.70
2023-05-14T20:43:23.062Z,7.90
2023-05-14T20:46:09.320Z,8.00
2023-05-14T20:48:57.717Z,8.10
2023-05-14T20:51:43.281Z,8.30
2023-05-14T20:54:29.349Z,8.50
2023-05-14T20:57:16.049Z,8.80
2023-05-14T21:00:02.518Z,8.70
2023-05-14T21:02:49.230Z,8.80
2023-05-14T21:05:35.617Z,9.70
2023-05-14T21:08:21.090Z,9.00
2023-05-14T21:11:07.184Z,9.10
2023-05-14T21:13:55.081Z,8.80
2023-05-14T21:16:40.445Z,8.70
2023-05-14T21:19:26.156Z,9.00
2023-05-14T21:22:12.913Z,9.60
2023-05-14T21:24:58.400Z,9.30
2023-05-14T21:27:46.307Z,9.60
2023-05-14T21:30:37.245Z,9.80
2023-05-14T21:33:23.721Z,10.10
2023-05-14T21:36:09.248Z,10.20
2023-05-14T21:38:56.120Z,10.10
2023-05-14T21:41:41.413Z,10.70
2023-05-14T21:44:29.553Z,11.00
2023-05-14T21:47:16.223Z,11.30
2023-05-14T21:50:01.727Z,11.70
2023-05-14T21:52:47.212Z,11.90
2023-05-14T21:55:33.291Z,12.10
2023-05-14T21:58:18.789Z,12.20
2023-05-14T22:01:04.499Z,12.40
2023-05-14T22:03:50.428Z,12.60
2023-05-14T22:06:36.912Z,12.00
2023-05-14T22:09:22.296Z,11.40
2023-05-14T22:12:07.940Z,11.70
2023-05-14T22:14:55.715Z,12.00
2023-05-14T22:17:41.746Z,12.30
2023-05-14T22:20:27.901Z,12.10
2023-05-14T22:23:13.172Z,12.70
2023-05-14T22:25:58.712Z,13.10
2023-05-14T22:28:44.011Z,12.90
2023-05-14T22:31:30.004Z,13.40
2023-05-14T22:34:16.062Z,13.20
2023-05-14T22:37:07.324Z,13.60
2023-05-14T22:39:53.142Z,14.00
2023-05-14T22:42:38.734Z,14.10
2023-05-14T22:45:24.516Z,14.20
2023-05-14T22:48:12.681Z,14.50
2023-05-14T22:51:00.498Z,14.80
2023-05-14T22:53:47.087Z,15.10
2023-05-14T22:56:32.630Z,15.30
2023-05-14T22:59:17.950Z,15.40
2023-05-14T23:02:06.706Z,15.60
2023-05-14T23:04:52.584Z,15.90
2023-05-14T23:07:37.995Z,16.10
2023-05-14T23:10:25.352Z,16.40
2023-05-14T23:13:10.703Z,16.50
2023-05-14T23:15:56.383Z,16.60
2023-05-14T23:18:44.233Z,16.80
2023-05-14T23:21:29.902Z,17.00
2023-05-14T23:24:17.306Z,17.10
2023-05-14T23:27:02.673Z,17.20
2023-05-14T23:29:48.047Z,17.40
2023-05-14T23:32:33.413Z,17.50
2023-05-14T23:35:19.145Z,17.60
2023-05-14T23:38:05.116Z,17.80
2023-05-14T23:40:50.501Z,18.20
2023-05-14T23:43:36.092Z,18.20
2023-05-14T23:46:22.366Z,18.20
2023-05-14T23:49:08.329Z,18.70
2023-05-14T23:51:53.775Z,18.50
2023-05-14T23:54:39.848Z,18.20
2023-05-14T23:57:28.401Z,18.40
